Time;durP1;ratioP1;P1;durP2;ratioP2;P2;SDS_P1;SDS_P2;PMS_P1;PMS_P2;Temp;Humidity;BMP_temperature;BMP_pressure;BME280_temperature;BME280_humidity;BME280_pressure;Samples;Min_cycle;Max_cycle;Signal;HPM_P1;HPM_P2
2021/07/13 00:02:04;;;;;;;7.67;6.87;;;;;;;20.03;80.63;100518.80;1705392;82;21056;-78
2021/07/13 00:04:30;;;;;;;7.70;6.73;;;;;;;20.02;80.77;100529.98;1705707;84;21571;-76
2021/07/13 00:06:57;;;;;;;9.10;7.00;;;;;;;20.00;80.97;100532.21;1708067;82;21992;-77
2021/07/13 00:09:24;;;;;;;8.17;7.20;;;;;;;19.98;81.17;100531.19;1706279;84;21136;-77
2021/07/13 00:11:51;;;;;;;8.13;7.33;;;;;;;19.93;81.43;100532.70;1705457;82;21065;-77
2021/07/13 00:14:18;;;;;;;8.47;7.30;;;;;;;19.86;81.78;100534.53;1705938;82;21065;-78
2021/07/13 00:16:46;;;;;;;8.83;7.83;;;;;;;19.80;82.11;100529.03;1704803;82;21058;-78
2021/07/13 00:19:12;;;;;;;10.63;8.23;;;;;;;19.77;82.34;100537.80;1706673;82;21052;-76
2021/07/13 00:21:39;;;;;;;11.57;8.17;;;;;;;19.75;82.57;100540.05;1705238;82;21102;-78
2021/07/13 00:24:07;;;;;;;11.87;7.90;;;;;;;19.73;82.75;100536.84;1703389;82;21155;-76
2021/07/13 00:26:36;;;;;;;9.63;7.73;;;;;;;19.70;82.89;100540.76;1705236;82;21073;-77
2021/07/13 00:29:06;;;;;;;8.67;7.00;;;;;;;19.66;83.01;100537.89;1705993;82;21065;-78
2021/07/13 00:31:35;;;;;;;9.30;7.62;;;;;;;19.64;83.09;100539.58;1696062;82;21097;-76
2021/07/13 00:34:02;;;;;;;10.03;7.93;;;;;;;19.62;83.19;100540.97;1705485;82;21686;-77
2021/07/13 00:36:29;;;;;;;11.07;7.67;;;;;;;19.59;83.26;100534.83;1706450;82;21077;-76
2021/07/13 00:38:55;;;;;;;8.60;7.70;;;;;;;19.54;83.32;100538.48;1705329;82;21006;-77
2021/07/13 00:41:22;;;;;;;10.53;7.63;;;;;;;19.52;83.49;100538.02;1701625;84;21117;-78
2021/07/13 00:43:49;;;;;;;12.03;7.87;;;;;;;19.48;83.71;100538.41;1705929;83;21090;-76
2021/07/13 00:46:16;;;;;;;9.13;7.40;;;;;;;19.45;83.83;100543.11;1706368;84;21532;-78
2021/07/13 00:48:43;;;;;;;9.23;7.43;;;;;;;19.43;83.93;100546.68;1705990;82;21184;-78
2021/07/13 00:51:11;;;;;;;9.93;7.70;;;;;;;19.41;84.02;100547.02;1704946;83;21021;-79
2021/07/13 00:53:42;;;;;;;9.63;7.90;;;;;;;19.38;84.14;100541.40;1705811;82;21120;-76
2021/07/13 00:56:12;;;;;;;9.78;8.10;;;;;;;19.34;84.29;100538.53;1707975;82;21938;-71
2021/07/13 00:58:39;;;;;;;10.00;8.20;;;;;;;19.30;84.50;100530.80;1688706;83;21034;-71
2021/07/13 01:01:07;;;;;;;11.20;8.73;;;;;;;19.28;84.70;100537.64;1707450;82;21149;-71
2021/07/13 01:03:35;;;;;;;9.33;8.00;;;;;;;19.21;84.96;100534.84;1713509;82;21068;-71
2021/07/13 01:06:02;;;;;;;9.40;8.37;;;;;;;19.17;85.30;100531.73;1708788;82;21490;-71
2021/07/13 01:08:41;;;;;;;9.77;8.13;;;;;;;19.17;85.56;100535.80;1708167;82;21148;-71
2021/07/13 01:11:33;;;;;;;8.83;7.67;;;;;;;19.13;85.86;100537.55;1697398;82;21348;-71
2021/07/13 01:14:12;;;;;;;8.77;7.87;;;;;;;19.11;86.13;100540.55;1713586;82;20974;-71
2021/07/13 01:16:51;;;;;;;9.17;8.27;;;;;;;19.11;86.33;100536.48;1710308;82;21042;-72
2021/07/13 01:20:03;;;;;;;10.43;8.50;;;;;;;19.09;86.46;100521.70;1708919;82;21036;-72
2021/07/13 01:22:43;;;;;;;9.90;8.87;;;;;;;19.10;86.60;100525.98;1714971;82;21961;-72
2021/07/13 01:25:17;;;;;;;9.93;8.23;;;;;;;19.09;86.82;100526.55;1709944;82;21280;-73
2021/07/13 01:28:01;;;;;;;8.90;7.63;;;;;;;19.08;86.96;100538.47;1709101;82;21116;-72
2021/07/13 01:30:35;;;;;;;9.10;8.20;;;;;;;19.05;87.10;100532.89;1706560;82;21058;-72
2021/07/13 01:33:20;;;;;;;8.53;7.67;;;;;;;19.01;87.25;100534.63;1694194;82;21124;-73
2021/07/13 01:36:04;;;;;;;8.70;7.80;;;;;;;19.00;87.39;100536.55;1712036;82;21051;-72
2021/07/13 01:38:35;;;;;;;8.77;6.93;;;;;;;19.01;87.44;100535.98;1708292;82;21584;-72
2021/07/13 01:41:06;;;;;;;11.00;7.62;;;;;;;19.01;87.56;100537.34;1677646;84;21096;-72
2021/07/13 01:43:36;;;;;;;9.83;7.92;;;;;;;19.00;87.66;100543.31;1708684;83;21144;-72
2021/07/13 01:46:05;;;;;;;8.33;7.53;;;;;;;19.01;87.68;100540.84;1706446;84;21022;-72
2021/07/13 01:48:33;;;;;;;9.07;7.37;;;;;;;19.02;87.79;100537.05;1706066;82;21553;-73
2021/07/13 01:51:01;;;;;;;8.30;7.03;;;;;;;19.03;87.81;100543.25;1706743;83;21474;-72
2021/07/13 01:53:29;;;;;;;7.80;6.97;;;;;;;19.02;87.82;100539.75;1708667;82;21529;-71
2021/07/13 01:55:56;;;;;;;8.30;7.17;;;;;;;19.02;87.70;100534.34;1684150;82;21026;-71
2021/07/13 01:58:25;;;;;;;7.70;6.90;;;;;;;19.03;87.59;100534.57;1707877;82;21069;-71
2021/07/13 02:00:54;;;;;;;9.60;7.50;;;;;;;19.04;87.53;100538.86;1707656;82;21175;-71
2021/07/13 02:03:25;;;;;;;9.03;7.40;;;;;;;19.04;87.61;100540.77;1709885;82;21558;-71
2021/07/13 02:05:55;;;;;;;8.03;7.23;;;;;;;19.05;87.60;100541.01;1707438;82;21102;-72
2021/07/13 02:08:22;;;;;;;7.97;6.97;;;;;;;19.08;87.59;100543.09;1707160;82;21042;-73
2021/07/13 02:10:49;;;;;;;9.60;7.60;;;;;;;19.10;87.64;100548.44;1707448;82;21126;-72
2021/07/13 02:13:18;;;;;;;8.57;7.20;;;;;;;19.12;87.68;100551.64;1705089;82;21073;-72
2021/07/13 02:15:47;;;;;;;9.10;7.73;;;;;;;19.13;87.73;100549.17;1707678;84;21019;-72
2021/07/13 02:18:13;;;;;;;8.63;7.60;;;;;;;19.15;87.79;100555.08;1706358;82;21156;-72
2021/07/13 02:20:40;;;;;;;9.03;8.13;;;;;;;19.17;87.95;100556.10;1709680;82;21030;-72
2021/07/13 02:23:08;;;;;;;8.43;7.57;;;;;;;19.15;88.15;100555.61;1702370;84;20951;-72
2021/07/13 02:25:36;;;;;;;8.87;7.97;;;;;;;19.12;88.41;100554.34;1707821;82;21011;-71
2021/07/13 02:28:45;;;;;;;9.57;8.57;;;;;;;19.09;88.69;100554.18;1708891;82;21058;-71
2021/07/13 02:31:28;;;;;;;9.80;8.80;;;;;;;19.05;88.93;100555.37;1705843;82;21513;-72
2021/07/13 02:34:09;;;;;;;10.17;8.63;;;;;;;19.02;89.05;100555.99;1680374;82;21031;-72
2021/07/13 02:36:41;;;;;;;10.28;8.83;;;;;;;18.97;89.04;100562.33;1709223;82;21026;-71
2021/07/13 02:39:08;;;;;;;10.43;9.00;;;;;;;18.94;89.16;100558.09;1707139;82;21127;-71
2021/07/13 02:41:40;;;;;;;9.43;8.43;;;;;;;18.92;89.29;100556.25;1709810;82;21155;-72
2021/07/13 02:44:07;;;;;;;10.70;8.70;;;;;;;18.93;89.48;100567.34;1698432;82;21014;-72
2021/07/13 02:46:41;;;;;;;9.30;8.40;;;;;;;18.92;89.79;100565.72;1706840;82;21014;-72
2021/07/13 02:49:04;;;;;;;10.33;9.30;;;;;;;18.93;90.01;100574.10;1706919;84;21075;-72
2021/07/13 02:51:30;;;;;;;10.33;8.77;;;;;;;18.93;90.17;100572.19;1707913;82;21111;-72
2021/07/13 02:53:57;;;;;;;10.17;9.17;;;;;;;18.95;90.24;100575.39;1707093;82;21030;-72
2021/07/13 02:56:25;;;;;;;10.70;9.60;;;;;;;18.97;90.38;100579.92;1682209;84;21078;-72
2021/07/13 02:58:57;;;;;;;10.10;8.80;;;;;;;19.01;90.44;100580.65;1708615;84;21059;-71
2021/07/13 03:01:24;;;;;;;10.13;9.03;;;;;;;19.06;90.53;100581.31;1706929;82;21005;-71
2021/07/13 03:03:51;;;;;;;9.93;8.87;;;;;;;19.12;90.52;100576.01;1747639;80;21235;-71
2021/07/13 03:06:19;;;;;;;11.17;8.93;;;;;;;19.18;90.40;100578.81;1747547;80;21320;-72
2021/07/13 03:08:48;;;;;;;10.03;8.70;;;;;;;19.25;90.27;100574.83;1720778;80;21107;-71
2021/07/13 03:11:15;;;;;;;10.10;8.93;;;;;;;19.32;90.28;100574.62;1742609;80;21099;-72
2021/07/13 03:13:42;;;;;;;9.60;8.60;;;;;;;19.40;90.17;100564.91;1741846;80;21086;-72
2021/07/13 03:16:10;;;;;;;9.17;8.17;;;;;;;19.44;89.96;100559.89;1751747;80;21415;-71
2021/07/13 03:18:37;;;;;;;9.83;8.83;;;;;;;19.49;89.71;100560.88;1745175;81;21604;-71
2021/07/13 03:21:04;;;;;;;10.57;9.03;;;;;;;19.56;89.43;100561.20;1742193;80;21036;-71
2021/07/13 03:23:38;;;;;;;9.60;8.70;;;;;;;19.63;89.25;100560.99;1741152;81;21482;-71
2021/07/13 03:26:07;;;;;;;10.20;8.70;;;;;;;19.71;89.13;100555.36;1710753;81;21566;-72
2021/07/13 03:28:34;;;;;;;10.23;8.70;;;;;;;19.80;89.07;100545.86;1744662;82;21530;-72
2021/07/13 03:31:01;;;;;;;9.20;7.77;;;;;;;19.87;88.66;100538.86;1725702;81;21067;-71
2021/07/13 03:33:28;;;;;;;8.90;7.80;;;;;;;19.95;88.01;100536.45;1745601;80;20983;-72
2021/07/13 03:36:00;;;;;;;9.47;8.47;;;;;;;20.00;87.30;100538.98;1729555;81;21502;-71
2021/07/13 03:38:23;;;;;;;8.80;7.90;;;;;;;20.06;86.63;100547.20;1746460;81;21581;-72
2021/07/13 03:40:50;;;;;;;9.53;8.53;;;;;;;20.12;86.30;100549.98;1734040;80;21113;-72
2021/07/13 03:43:17;;;;;;;11.20;8.27;;;;;;;20.17;86.13;100555.26;1748291;80;20951;-71
2021/07/13 03:45:44;;;;;;;8.80;7.90;;;;;;;20.21;86.06;100554.84;1752323;81;20974;-72
2021/07/13 03:48:12;;;;;;;9.80;8.17;;;;;;;20.25;85.94;100553.64;1744791;80;21030;-71
2021/07/13 03:50:38;;;;;;;9.00;7.90;;;;;;;20.33;85.62;100558.23;1749281;80;21161;-72
2021/07/13 03:53:05;;;;;;;9.43;8.43;;;;;;;20.44;85.09;100554.65;1743782;80;21458;-71
2021/07/13 03:55:32;;;;;;;9.30;8.30;;;;;;;20.56;84.58;100556.93;1749857;80;21490;-71
2021/07/13 03:57:59;;;;;;;8.87;7.97;;;;;;;20.72;84.40;100559.91;1751984;80;21058;-71
2021/07/13 04:00:32;;;;;;;8.93;7.30;;;;;;;20.89;84.22;100563.69;1753102;80;21514;-71
2021/07/13 04:02:58;;;;;;;8.20;7.03;;;;;;;21.04;83.37;100553.08;1741688;81;21019;-71
2021/07/13 04:05:25;;;;;;;9.73;7.20;;;;;;;21.23;82.13;100549.16;1750780;80;21127;-72
2021/07/13 04:07:51;;;;;;;7.80;7.00;;;;;;;21.37;81.00;100549.72;1750763;81;21141;-72
2021/07/13 04:10:19;;;;;;;10.20;7.57;;;;;;;21.52;80.50;100562.73;1753427;80;21014;-72
2021/07/13 04:12:46;;;;;;;8.40;7.33;;;;;;;21.68;79.73;100565.64;1747235;80;21046;-72
2021/07/13 04:15:13;;;;;;;10.20;7.40;;;;;;;21.83;79.24;100568.91;1747775;80;21423;-72
2021/07/13 04:17:42;;;;;;;8.57;7.10;;;;;;;21.98;78.60;100560.11;1747930;80;21085;-72
2021/07/13 04:20:09;;;;;;;8.60;6.97;;;;;;;22.11;77.77;100560.42;1750983;80;21513;-70
2021/07/13 04:22:40;;;;;;;6.83;6.20;;;;;;;22.28;76.65;100557.30;1746622;80;20990;-71
2021/07/13 04:25:08;;;;;;;6.80;6.10;;;;;;;22.43;75.53;100561.55;1750063;80;21078;-71
2021/07/13 04:27:35;;;;;;;7.27;6.13;;;;;;;22.56;74.28;100566.45;1750487;80;21113;-72
2021/07/13 04:30:06;;;;;;;7.03;5.93;;;;;;;22.65;73.48;100573.96;1755746;80;21143;-72
2021/07/13 04:32:33;;;;;;;7.73;6.10;;;;;;;22.75;72.76;100565.13;1747944;80;21058;-72
2021/07/13 04:35:00;;;;;;;6.00;5.40;;;;;;;22.86;72.18;100558.09;1750513;80;21128;-71
2021/07/13 04:37:27;;;;;;;5.70;4.63;;;;;;;23.00;71.17;100565.41;1737418;81;21438;-72
2021/07/13 04:39:54;;;;;;;5.83;5.07;;;;;;;23.10;70.68;100570.95;1743114;81;21082;-72
2021/07/13 04:42:21;;;;;;;6.23;5.40;;;;;;;23.21;69.97;100568.01;1739404;81;21960;-72
2021/07/13 04:44:47;;;;;;;5.50;4.90;;;;;;;23.29;69.76;100560.84;1749123;80;21007;-72
2021/07/13 04:47:14;;;;;;;8.40;4.97;;;;;;;23.36;68.80;100561.87;1752739;80;21047;-72
2021/07/13 04:49:40;;;;;;;6.00;5.37;;;;;;;23.45;68.02;100565.02;1751045;80;21566;-72
2021/07/13 04:52:07;;;;;;;6.30;5.33;;;;;;;23.55;67.72;100561.24;1749250;80;20991;-72
2021/07/13 04:54:34;;;;;;;5.57;4.93;;;;;;;23.69;67.38;100561.47;1748016;80;21068;-72
2021/07/13 04:57:02;;;;;;;6.37;4.93;;;;;;;23.84;66.33;100555.29;1747646;81;20998;-72
2021/07/13 04:59:28;;;;;;;5.40;4.90;;;;;;;23.95;65.54;100555.00;1740859;80;21021;-72
2021/07/13 05:01:55;;;;;;;5.47;4.87;;;;;;;24.10;65.05;100560.30;1785015;79;21072;-72
2021/07/13 05:04:22;;;;;;;6.23;4.80;;;;;;;24.23;65.26;100558.31;1749750;80;21780;-71
2021/07/13 05:06:48;;;;;;;5.03;4.53;;;;;;;24.36;65.03;100552.22;1742019;80;21088;-72
2021/07/13 05:09:16;;;;;;;5.60;4.77;;;;;;;24.44;63.41;100551.27;1750387;80;21000;-72
2021/07/13 05:11:43;;;;;;;5.37;4.87;;;;;;;24.50;62.68;100549.30;1751356;81;21089;-72
2021/07/13 05:14:11;;;;;;;5.63;5.03;;;;;;;24.53;61.67;100543.71;1749546;80;21009;-71
2021/07/13 05:16:38;;;;;;;4.97;4.47;;;;;;;24.53;61.61;100540.98;1749744;80;20952;-71
2021/07/13 05:19:07;;;;;;;7.40;5.50;;;;;;;24.56;60.97;100539.70;1743711;80;21599;-71
2021/07/13 05:21:34;;;;;;;6.23;4.63;;;;;;;24.56;60.52;100541.06;1748931;80;21135;-72
2021/07/13 05:24:03;;;;;;;6.57;4.63;;;;;;;24.60;60.63;100541.73;1749674;80;20999;-72
2021/07/13 05:26:30;;;;;;;6.37;5.23;;;;;;;24.66;60.71;100535.65;1749441;80;21007;-72
2021/07/13 05:28:57;;;;;;;6.20;5.23;;;;;;;24.71;60.76;100535.95;1736576;80;21106;-72
2021/07/13 05:31:24;;;;;;;5.27;4.77;;;;;;;24.76;61.48;100535.70;1732821;80;21114;-72
2021/07/13 05:33:57;;;;;;;5.80;4.97;;;;;;;24.80;61.33;100536.56;1743799;80;20999;-72
2021/07/13 05:36:19;;;;;;;6.47;5.70;;;;;;;24.88;61.22;100533.45;1747495;81;21004;-72
2021/07/13 05:38:47;;;;;;;9.03;5.43;;;;;;;24.91;60.32;100528.06;1739671;80;21026;-72
2021/07/13 05:41:14;;;;;;;6.30;5.27;;;;;;;24.95;60.42;100528.94;1743476;80;20971;-73
2021/07/13 05:43:40;;;;;;;5.87;5.20;;;;;;;24.98;60.85;100526.86;1742529;80;21811;-72
2021/07/13 05:46:07;;;;;;;7.40;5.40;;;;;;;25.10;60.82;100527.89;1749327;80;21032;-72
2021/07/13 05:48:33;;;;;;;7.83;5.83;;;;;;;25.24;60.76;100533.72;1750327;80;21098;-72
2021/07/13 05:51:01;;;;;;;6.67;5.77;;;;;;;25.32;60.53;100527.25;1751152;80;21032;-72
2021/07/13 05:53:28;;;;;;;8.77;5.60;;;;;;;25.41;60.91;100529.21;1750465;80;21026;-72
2021/07/13 05:55:55;;;;;;;7.00;5.47;;;;;;;25.54;60.86;100530.45;1743194;80;21745;-71
2021/07/13 05:58:22;;;;;;;6.83;5.20;;;;;;;25.65;60.92;100529.51;1746804;80;21529;-71
2021/07/13 06:00:49;;;;;;;6.03;5.43;;;;;;;25.78;60.20;100530.16;1743467;80;21069;-71
2021/07/13 06:03:16;;;;;;;6.43;5.40;;;;;;;25.87;59.70;100528.61;1751611;80;21541;-71
2021/07/13 06:05:44;;;;;;;8.00;6.10;;;;;;;25.94;59.22;100536.38;1749398;80;21084;-71
2021/07/13 06:08:10;;;;;;;6.93;6.00;;;;;;;25.96;58.55;100538.73;1748355;80;21201;-71
2021/07/13 06:10:37;;;;;;;7.27;5.90;;;;;;;26.01;58.19;100533.56;1732590;81;21142;-72
2021/07/13 06:13:04;;;;;;;11.07;6.43;;;;;;;26.07;58.62;100538.95;1739383;80;21057;-71
2021/07/13 06:15:31;;;;;;;7.10;6.23;;;;;;;26.06;57.97;100537.35;1744450;80;21310;-72
2021/07/13 06:17:59;;;;;;;6.83;6.13;;;;;;;26.14;58.83;100535.77;1734591;82;21054;-71
2021/07/13 06:20:26;;;;;;;6.40;5.80;;;;;;;26.29;59.24;100544.23;1743628;80;21272;-72
2021/07/13 06:22:53;;;;;;;9.17;5.77;;;;;;;26.40;58.27;100544.64;1742203;80;21498;-72
2021/07/13 06:25:20;;;;;;;7.17;6.47;;;;;;;26.44;57.08;100540.59;1741002;80;21094;-72
2021/07/13 06:27:52;;;;;;;6.90;6.20;;;;;;;26.47;56.98;100533.60;1738379;82;21121;-72
2021/07/13 06:30:21;;;;;;;7.27;5.97;;;;;;;26.52;56.33;100535.50;1717198;80;21078;-71
2021/07/13 06:32:48;;;;;;;7.87;6.17;;;;;;;26.58;56.29;100534.59;1729598;81;21515;-70
2021/07/13 06:35:16;;;;;;;7.10;6.10;;;;;;;26.64;55.69;100530.39;1735685;80;38591;-71
2021/07/13 06:37:43;;;;;;;7.47;6.00;;;;;;;26.68;55.88;100528.50;1740487;80;21054;-72
2021/07/13 06:40:11;;;;;;;6.20;5.57;;;;;;;26.73;54.92;100535.63;1739384;80;21486;-71
2021/07/13 06:42:38;;;;;;;9.97;6.00;;;;;;;26.73;54.33;100532.89;1732852;80;21512;-71
2021/07/13 06:45:07;;;;;;;9.00;5.90;;;;;;;26.70;54.20;100531.67;1739570;80;21167;-71
2021/07/13 06:47:34;;;;;;;10.43;5.93;;;;;;;26.74;54.38;100527.62;1744904;80;21497;-72
2021/07/13 06:50:01;;;;;;;7.87;6.20;;;;;;;26.79;54.58;100532.21;1739474;80;21049;-71
2021/07/13 06:52:28;;;;;;;6.90;6.20;;;;;;;26.90;54.98;100533.16;1740097;80;21082;-71
2021/07/13 06:54:54;;;;;;;7.27;5.70;;;;;;;27.03;54.27;100527.47;1734708;80;21061;-71
2021/07/13 06:57:23;;;;;;;6.30;5.70;;;;;;;27.18;54.43;100529.30;1743873;80;21134;-71
2021/07/13 06:59:51;;;;;;;6.53;5.57;;;;;;;27.33;54.96;100529.69;1723803;82;20959;-72
2021/07/13 07:02:18;;;;;;;6.03;5.43;;;;;;;27.49;54.09;100525.98;1730027;81;21062;-71
2021/07/13 07:04:45;;;;;;;8.73;5.70;;;;;;;27.56;54.11;100516.46;1742145;80;21093;-72
2021/07/13 07:07:13;;;;;;;6.10;5.40;;;;;;;27.67;53.16;100520.70;1739832;80;21039;-72
2021/07/13 07:09:41;;;;;;;6.60;5.10;;;;;;;27.80;51.67;100522.05;1749467;82;21960;-71
2021/07/13 07:12:08;;;;;;;6.20;5.60;;;;;;;27.90;52.04;100518.64;1747453;80;21086;-72
2021/07/13 07:14:35;;;;;;;7.30;5.67;;;;;;;28.06;52.00;100519.20;1748587;80;21047;-71
2021/07/13 07:17:02;;;;;;;6.00;5.40;;;;;;;28.14;51.56;100521.45;1745076;80;21585;-72
2021/07/13 07:19:30;;;;;;;7.07;6.07;;;;;;;28.18;51.85;100520.11;1748762;80;21081;-71
2021/07/13 07:21:57;;;;;;;5.30;4.80;;;;;;;28.18;51.43;100518.74;1744391;80;21956;-74
2021/07/13 07:24:23;;;;;;;5.90;5.30;;;;;;;28.28;51.94;100517.46;1744463;80;21079;-72
2021/07/13 07:26:50;;;;;;;7.00;5.20;;;;;;;28.40;51.28;100516.44;1744519;80;21077;-72
2021/07/13 07:29:16;;;;;;;7.30;5.90;;;;;;;28.48;50.06;100515.90;1745061;80;21066;-73
2021/07/13 07:31:43;;;;;;;6.43;5.40;;;;;;;28.62;49.72;100517.97;1745611;80;20958;-71
2021/07/13 07:34:09;;;;;;;5.83;4.93;;;;;;;28.75;48.94;100510.41;1743036;80;21077;-73
2021/07/13 07:36:36;;;;;;;6.20;5.27;;;;;;;28.85;48.20;100516.38;1738539;80;21564;-72
2021/07/13 07:39:04;;;;;;;6.72;5.62;;;;;;;28.89;47.99;100515.80;1744207;82;21736;-72
2021/07/13 07:41:31;;;;;;;6.15;5.55;;;;;;;28.96;47.69;100514.50;1748597;80;20966;-72
2021/07/13 07:43:59;;;;;;;5.70;5.10;;;;;;;29.04;47.69;100513.98;1744738;80;21687;-73
2021/07/13 07:46:26;;;;;;;6.08;5.00;;;;;;;29.16;47.19;100513.08;1744917;80;21862;-71
2021/07/13 07:48:53;;;;;;;5.67;5.08;;;;;;;29.23;47.00;100509.57;1745856;80;21142;-73
2021/07/13 07:51:19;;;;;;;7.72;5.60;;;;;;;29.31;46.80;100510.38;1746840;80;21049;-72
2021/07/13 07:53:46;;;;;;;6.10;5.40;;;;;;;29.36;46.75;100514.16;1746608;82;21054;-72
2021/07/13 07:56:13;;;;;;;5.97;5.25;;;;;;;29.42;47.19;100512.62;1744875;80;21043;-72
2021/07/13 07:58:39;;;;;;;6.83;4.90;;;;;;;29.51;46.71;100514.40;1741076;80;21084;-73
2021/07/13 08:01:06;;;;;;;6.25;5.00;;;;;;;29.56;46.63;100518.17;1742888;80;21137;-71
2021/07/13 08:03:35;;;;;;;5.85;5.25;;;;;;;29.70;46.46;100520.21;1745085;80;21030;-72
2021/07/13 08:06:01;;;;;;;5.55;5.05;;;;;;;29.83;46.00;100520.05;1735184;80;21047;-72
2021/07/13 08:08:28;;;;;;;5.83;5.33;;;;;;;29.91;46.06;100519.47;1743097;80;21022;-72
2021/07/13 08:10:55;;;;;;;6.30;5.53;;;;;;;29.96;45.51;100516.35;1742683;80;21064;-72
2021/07/13 08:13:22;;;;;;;5.33;4.83;;;;;;;29.98;45.79;100510.44;1749606;80;21133;-72
2021/07/13 08:15:51;;;;;;;7.85;5.37;;;;;;;29.94;45.37;100511.81;1742104;80;21057;-72
2021/07/13 08:18:19;;;;;;;6.00;5.37;;;;;;;29.89;45.40;100510.83;1739376;80;21030;-72
2021/07/13 08:20:48;;;;;;;7.00;5.20;;;;;;;29.89;45.20;100509.45;1749123;82;21085;-72
2021/07/13 08:23:15;;;;;;;7.05;5.33;;;;;;;29.88;44.93;100511.42;1751718;80;21275;-73
2021/07/13 08:25:42;;;;;;;6.78;5.50;;;;;;;29.91;45.58;100509.27;1750953;80;20935;-73
2021/07/13 08:28:09;;;;;;;7.35;5.50;;;;;;;29.98;45.16;100505.75;1746495;80;21189;-72
2021/07/13 08:30:36;;;;;;;6.22;5.62;;;;;;;29.98;44.11;100503.55;1757187;80;21039;-73
2021/07/13 08:33:04;;;;;;;6.15;5.47;;;;;;;29.90;44.24;100509.05;1748974;80;21013;-72
2021/07/13 08:35:30;;;;;;;7.85;5.58;;;;;;;29.90;44.67;100505.52;1749382;80;21506;-72
2021/07/13 08:37:58;;;;;;;7.00;5.67;;;;;;;29.93;45.58;100511.63;1737761;81;21050;-73
2021/07/13 08:40:26;;;;;;;5.67;5.00;;;;;;;29.94;45.97;100511.03;1744982;80;21086;-72
2021/07/13 08:42:54;;;;;;;6.55;4.92;;;;;;;29.99;46.05;100513.41;1735758;80;21029;-72
2021/07/13 08:45:21;;;;;;;6.20;5.15;;;;;;;30.01;45.67;100508.28;1718993;82;21043;-72
2021/07/13 08:47:52;;;;;;;5.55;4.87;;;;;;;30.02;45.25;100512.04;1729748;80;21133;-73
2021/07/13 08:50:20;;;;;;;5.28;4.78;;;;;;;30.07;44.58;100517.14;1744204;80;21061;-72
2021/07/13 08:52:47;;;;;;;5.97;5.03;;;;;;;30.06;43.70;100511.45;1748997;80;21078;-72
2021/07/13 08:55:14;;;;;;;5.83;4.90;;;;;;;30.08;44.09;100515.20;1744047;80;21011;-72
2021/07/13 08:57:42;;;;;;;6.42;5.58;;;;;;;30.15;45.46;100510.48;1743993;80;21585;-71
2021/07/13 09:00:14;;;;;;;6.17;5.17;;;;;;;30.18;44.93;100511.67;1741426;80;21788;-73
2021/07/13 09:03:07;;;;;;;7.15;5.17;;;;;;;30.20;44.55;100511.30;1742429;80;21515;-72
2021/07/13 09:05:50;;;;;;;5.42;4.87;;;;;;;30.22;44.60;100504.22;1750343;80;21047;-72
2021/07/13 09:08:28;;;;;;;6.40;4.85;;;;;;;30.31;44.21;100501.87;1734293;81;21046;-72
2021/07/13 09:11:19;;;;;;;7.08;5.17;;;;;;;30.41;44.79;100503.66;1743987;80;21462;-72
2021/07/13 09:13:51;;;;;;;5.58;4.33;;;;;;;30.43;44.18;100505.41;1744494;80;20996;-72
2021/07/13 09:16:26;;;;;;;5.55;4.95;;;;;;;30.44;44.34;100504.22;1748052;80;21027;-72
2021/07/13 09:18:55;;;;;;;5.20;4.70;;;;;;;30.54;45.13;100497.34;1743811;81;21039;-72
2021/07/13 09:21:35;;;;;;;5.30;4.80;;;;;;;30.75;43.70;100504.02;1744258;80;28574;-72
2021/07/13 09:24:17;;;;;;;5.80;4.87;;;;;;;30.90;44.20;100496.52;1733337;80;21011;-71
2021/07/13 09:26:53;;;;;;;7.03;4.85;;;;;;;31.05;43.23;100500.83;1748919;80;21166;-72
2021/07/13 09:29:41;;;;;;;6.87;4.55;;;;;;;31.07;43.28;100501.23;1740056;81;21066;-70
2021/07/13 09:32:33;;;;;;;6.00;5.05;;;;;;;31.14;44.18;100503.19;1749430;80;21076;-71
2021/07/13 09:35:13;;;;;;;5.40;4.60;;;;;;;31.25;42.50;100501.16;1742481;82;20996;-71
2021/07/13 09:37:43;;;;;;;5.00;4.50;;;;;;;31.35;42.82;100500.37;1746793;80;21089;-70
2021/07/13 09:40:17;;;;;;;5.67;4.25;;;;;;;31.42;42.52;100497.58;1741712;80;21071;-71
2021/07/13 09:42:52;;;;;;;4.65;4.20;;;;;;;31.36;41.14;100500.58;1746700;80;21059;-71
2021/07/13 09:45:31;;;;;;;6.17;4.67;;;;;;;31.26;42.55;100506.87;1744325;82;21527;-71
2021/07/13 09:48:11;;;;;;;7.15;4.70;;;;;;;31.19;41.34;100501.37;1748900;80;21486;-71
2021/07/13 09:50:41;;;;;;;4.45;4.05;;;;;;;31.18;41.17;100503.95;1744322;82;21446;-71
2021/07/13 09:53:11;;;;;;;5.87;4.73;;;;;;;31.11;40.56;100505.36;1748480;80;21129;-71
2021/07/13 09:55:38;;;;;;;5.20;3.80;;;;;;;31.07;40.91;100505.37;1744164;82;21510;-71
2021/07/13 09:58:21;;;;;;;4.85;3.90;;;;;;;31.06;39.91;100506.53;1745291;80;21129;-71
2021/07/13 10:00:53;;;;;;;5.95;4.60;;;;;;;31.06;40.26;100496.88;1741360;82;21085;-70
2021/07/13 10:17:03;;;;;;;5.40;4.50;;;;;;;31.32;39.63;100483.20;1792895;79;22637;-72
2021/07/13 10:19:32;;;;;;;6.25;4.10;;;;;;;31.32;39.63;100483.20;1762459;80;21048;-71
2021/07/13 10:22:03;;;;;;;6.12;3.60;;;;;;;31.24;38.96;100480.28;1834798;77;21984;-73
2021/07/13 10:24:31;;;;;;;6.10;4.00;;;;;;;31.29;39.79;100479.29;1837127;76;20971;-72
2021/07/13 10:26:59;;;;;;;5.33;4.33;;;;;;;31.49;41.57;100489.28;1830114;77;21047;-72
2021/07/13 10:29:36;;;;;;;4.50;3.92;;;;;;;31.59;40.32;100489.61;1822848;77;21023;-73
2021/07/13 10:32:26;;;;;;;4.90;4.22;;;;;;;31.65;41.21;100492.14;1827529;77;21544;-71
2021/07/13 10:35:08;;;;;;;5.15;3.98;;;;;;;31.76;40.79;100488.75;1846704;77;21166;-72
2021/07/13 10:37:38;;;;;;;7.03;4.87;;;;;;;31.78;41.12;100490.49;1805252;77;21022;-72
2021/07/13 10:40:15;;;;;;;4.50;3.98;;;;;;;31.84;40.26;100492.24;1831596;77;21031;-71
2021/07/13 10:42:46;;;;;;;4.95;3.75;;;;;;;31.96;40.71;100499.50;1826105;76;21058;-72
2021/07/13 10:45:24;;;;;;;5.67;4.20;;;;;;;32.07;40.81;100497.25;1841375;77;20999;-72
2021/07/13 10:48:03;;;;;;;5.67;3.77;;;;;;;32.15;39.48;100496.81;1830889;77;21090;-72
2021/07/13 10:50:36;;;;;;;12.82;4.28;;;;;;;32.26;38.49;100491.80;1837430;77;21640;-72
2021/07/13 10:53:24;;;;;;;4.85;4.25;;;;;;;32.31;39.38;100488.58;1818157;76;21657;-72
2021/07/13 10:56:10;;;;;;;5.40;3.92;;;;;;;32.43;39.33;100487.52;1842137;77;22083;-72
2021/07/13 10:58:47;;;;;;;7.97;4.40;;;;;;;32.50;38.46;100475.61;1830875;77;21544;-72
2021/07/13 11:03:58;;;;;;;4.87;4.07;;;;;;;32.50;39.13;100466.53;1849707;77;23118;-72
2021/07/13 11:06:49;;;;;;;5.40;4.42;;;;;;;32.43;39.25;100475.08;1812225;77;21030;-73
2021/07/13 11:09:20;;;;;;;4.87;4.35;;;;;;;32.34;39.43;100482.23;1811282;77;21659;-72
2021/07/13 11:11:47;;;;;;;5.90;4.65;;;;;;;32.22;39.52;100483.53;1849345;77;21062;-73
2021/07/13 11:14:15;;;;;;;5.30;4.70;;;;;;;32.15;38.92;100479.42;1802355;77;21123;-71
2021/07/13 11:16:47;;;;;;;4.75;4.28;;;;;;;32.12;38.72;100472.75;1821942;76;21082;-72
2021/07/13 11:19:15;;;;;;;6.37;4.00;;;;;;;32.12;39.11;100467.22;1833219;77;20958;-72
2021/07/13 11:21:52;;;;;;;5.70;4.00;;;;;;;32.14;38.74;100473.72;1821180;78;21121;-73
2021/07/13 11:24:26;;;;;;;5.33;4.50;;;;;;;32.04;39.08;100476.74;1824435;77;21017;-73
2021/07/13 11:26:55;;;;;;;6.25;4.70;;;;;;;31.98;39.14;100476.41;1830083;76;21073;-72
2021/07/13 11:29:27;;;;;;;5.75;4.25;;;;;;;32.02;40.57;100475.57;1827020;77;21066;-73
2021/07/13 11:32:01;;;;;;;4.95;4.25;;;;;;;32.11;40.51;100479.45;1827041;77;21563;-73
2021/07/13 11:34:34;;;;;;;6.58;4.70;;;;;;;32.25;39.17;100473.05;1828815;78;21107;-72
2021/07/13 11:37:00;;;;;;;5.17;4.67;;;;;;;32.26;39.29;100473.23;1831257;76;21230;-73
2021/07/13 11:39:30;;;;;;;6.70;4.25;;;;;;;32.32;40.34;100482.66;1825842;77;21062;-73
2021/07/13 11:42:06;;;;;;;4.92;4.42;;;;;;;32.36;39.58;100467.42;1826683;77;21529;-73
2021/07/13 11:44:30;;;;;;;6.60;5.05;;;;;;;32.32;38.41;100465.30;1832650;77;21670;-73
2021/07/13 11:46:56;;;;;;;7.45;4.80;;;;;;;32.25;38.71;100468.91;1832583;76;21071;-70
2021/07/13 11:49:26;;;;;;;5.37;4.75;;;;;;;32.24;38.57;100468.70;1826447;76;21540;-72
2021/07/13 11:51:59;;;;;;;5.00;4.50;;;;;;;32.19;39.06;100472.69;1833516;76;21133;-71
2021/07/13 11:54:29;;;;;;;6.65;4.30;;;;;;;32.20;40.59;100471.48;1821271;78;21073;-72